sensor_id;sensor_type;location;lat;lon;timestamp;P1;durP1;ratioP1;P2;durP2;ratioP2
41077;SDS011;26823;42.662;23.352;2023-05-29T00:00:12;7.55;;;5.93;;
41077;SDS011;26823;42.662;23.352;2023-05-29T00:02:45;8.05;;;5.88;;
41077;SDS011;26823;42.662;23.352;2023-05-29T00:05:11;7.25;;;5.43;;
41077;SDS011;26823;42.662;23.352;2023-05-29T00:07:37;7.80;;;5.22;;
41077;SDS011;26823;42.662;23.352;2023-05-29T00:10:04;9.90;;;5.45;;
41077;SDS011;26823;42.662;23.352;2023-05-29T00:12:31;10.52;;;5.78;;
41077;SDS011;26823;42.662;23.352;2023-05-29T00:14:56;8.60;;;5.38;;
41077;SDS011;26823;42.662;23.352;2023-05-29T00:17:22;10.38;;;5.40;;
41077;SDS011;26823;42.662;23.352;2023-05-29T00:19:48;7.47;;;5.35;;
41077;SDS011;26823;42.662;23.352;2023-05-29T00:22:14;6.20;;;5.20;;
41077;SDS011;26823;42.662;23.352;2023-05-29T00:24:39;8.52;;;5.35;;
41077;SDS011;26823;42.662;23.352;2023-05-29T00:27:04;9.15;;;5.00;;
41077;SDS011;26823;42.662;23.352;2023-05-29T00:29:30;6.18;;;5.15;;
41077;SDS011;26823;42.662;23.352;2023-05-29T00:31:55;7.00;;;5.28;;
41077;SDS011;26823;42.662;23.352;2023-05-29T00:34:22;7.93;;;5.00;;
41077;SDS011;26823;42.662;23.352;2023-05-29T00:36:48;7.95;;;5.38;;
41077;SDS011;26823;42.662;23.352;2023-05-29T00:39:14;8.90;;;5.32;;
41077;SDS011;26823;42.662;23.352;2023-05-29T00:41:40;5.85;;;4.85;;
41077;SDS011;26823;42.662;23.352;2023-05-29T00:44:05;7.45;;;5.20;;
41077;SDS011;26823;42.662;23.352;2023-05-29T00:46:31;6.68;;;5.68;;
41077;SDS011;26823;42.662;23.352;2023-05-29T00:49:01;6.75;;;5.25;;
41077;SDS011;26823;42.662;23.352;2023-05-29T00:51:28;8.43;;;5.55;;
41077;SDS011;26823;42.662;23.352;2023-05-29T00:53:54;9.30;;;5.45;;
41077;SDS011;26823;42.662;23.352;2023-05-29T00:56:22;7.85;;;5.32;;
41077;SDS011;26823;42.662;23.352;2023-05-29T00:58:48;6.85;;;5.30;;
41077;SDS011;26823;42.662;23.352;2023-05-29T01:01:16;8.77;;;5.70;;
41077;SDS011;26823;42.662;23.352;2023-05-29T01:03:42;7.22;;;5.50;;
41077;SDS011;26823;42.662;23.352;2023-05-29T01:06:08;8.00;;;5.65;;
41077;SDS011;26823;42.662;23.352;2023-05-29T01:08:35;7.57;;;5.05;;
41077;SDS011;26823;42.662;23.352;2023-05-29T01:11:03;8.70;;;6.05;;
41077;SDS011;26823;42.662;23.352;2023-05-29T01:13:34;9.68;;;4.90;;
41077;SDS011;26823;42.662;23.352;2023-05-29T01:16:03;9.13;;;6.13;;
41077;SDS011;26823;42.662;23.352;2023-05-29T01:18:41;10.05;;;5.18;;
41077;SDS011;26823;42.662;23.352;2023-05-29T01:21:31;7.18;;;5.78;;
41077;SDS011;26823;42.662;23.352;2023-05-29T01:27:18;6.00;;;5.32;;
41077;SDS011;26823;42.662;23.352;2023-05-29T01:29:46;6.57;;;5.22;;
41077;SDS011;26823;42.662;23.352;2023-05-29T01:32:19;8.75;;;5.30;;
41077;SDS011;26823;42.662;23.352;2023-05-29T01:34:46;9.30;;;5.32;;
41077;SDS011;26823;42.662;23.352;2023-05-29T01:37:11;6.35;;;5.65;;
41077;SDS011;26823;42.662;23.352;2023-05-29T01:39:38;9.55;;;5.78;;
41077;SDS011;26823;42.662;23.352;2023-05-29T01:42:10;8.20;;;5.00;;
41077;SDS011;26823;42.662;23.352;2023-05-29T01:44:37;8.45;;;5.47;;
41077;SDS011;26823;42.662;23.352;2023-05-29T01:47:03;9.35;;;5.40;;
41077;SDS011;26823;42.662;23.352;2023-05-29T01:49:29;7.72;;;6.03;;
41077;SDS011;26823;42.662;23.352;2023-05-29T01:51:56;9.13;;;5.88;;
41077;SDS011;26823;42.662;23.352;2023-05-29T01:54:22;7.55;;;5.70;;
41077;SDS011;26823;42.662;23.352;2023-05-29T01:56:48;8.35;;;5.80;;
41077;SDS011;26823;42.662;23.352;2023-05-29T01:59:15;9.25;;;6.25;;
41077;SDS011;26823;42.662;23.352;2023-05-29T02:01:40;8.23;;;5.97;;
41077;SDS011;26823;42.662;23.352;2023-05-29T02:04:07;6.55;;;5.40;;
41077;SDS011;26823;42.662;23.352;2023-05-29T02:06:32;7.63;;;5.78;;
41077;SDS011;26823;42.662;23.352;2023-05-29T02:09:01;8.35;;;6.30;;
41077;SDS011;26823;42.662;23.352;2023-05-29T02:11:27;6.78;;;5.53;;
41077;SDS011;26823;42.662;23.352;2023-05-29T02:13:53;8.43;;;4.95;;
41077;SDS011;26823;42.662;23.352;2023-05-29T02:16:19;11.82;;;5.82;;
41077;SDS011;26823;42.662;23.352;2023-05-29T02:18:46;7.55;;;5.85;;
41077;SDS011;26823;42.662;23.352;2023-05-29T02:21:12;8.05;;;5.60;;
41077;SDS011;26823;42.662;23.352;2023-05-29T02:23:37;9.00;;;6.32;;
41077;SDS011;26823;42.662;23.352;2023-05-29T02:26:03;7.85;;;5.72;;
41077;SDS011;26823;42.662;23.352;2023-05-29T02:28:28;7.53;;;5.50;;
41077;SDS011;26823;42.662;23.352;2023-05-29T02:30:54;7.15;;;5.90;;
41077;SDS011;26823;42.662;23.352;2023-05-29T02:33:19;8.85;;;5.88;;
41077;SDS011;26823;42.662;23.352;2023-05-29T02:35:45;7.28;;;5.63;;
41077;SDS011;26823;42.662;23.352;2023-05-29T02:38:10;8.13;;;6.43;;
41077;SDS011;26823;42.662;23.352;2023-05-29T02:40:36;5.95;;;5.20;;
41077;SDS011;26823;42.662;23.352;2023-05-29T02:43:01;9.38;;;6.63;;
41077;SDS011;26823;42.662;23.352;2023-05-29T02:45:26;9.05;;;6.85;;
41077;SDS011;26823;42.662;23.352;2023-05-29T02:47:52;9.07;;;6.07;;
41077;SDS011;26823;42.662;23.352;2023-05-29T02:50:17;6.72;;;6.03;;
41077;SDS011;26823;42.662;23.352;2023-05-29T02:52:43;7.65;;;6.13;;
41077;SDS011;26823;42.662;23.352;2023-05-29T02:55:08;7.30;;;5.78;;
41077;SDS011;26823;42.662;23.352;2023-05-29T02:57:34;6.97;;;5.82;;
41077;SDS011;26823;42.662;23.352;2023-05-29T03:00:00;6.82;;;6.10;;
41077;SDS011;26823;42.662;23.352;2023-05-29T03:02:26;10.10;;;6.97;;
41077;SDS011;26823;42.662;23.352;2023-05-29T03:04:51;8.82;;;6.35;;
41077;SDS011;26823;42.662;23.352;2023-05-29T03:07:18;11.30;;;7.40;;
41077;SDS011;26823;42.662;23.352;2023-05-29T03:09:44;7.20;;;6.25;;
41077;SDS011;26823;42.662;23.352;2023-05-29T03:12:09;9.88;;;5.93;;
41077;SDS011;26823;42.662;23.352;2023-05-29T03:14:36;7.70;;;5.18;;
41077;SDS011;26823;42.662;23.352;2023-05-29T03:17:05;8.35;;;5.90;;
41077;SDS011;26823;42.662;23.352;2023-05-29T03:19:32;10.48;;;6.72;;
41077;SDS011;26823;42.662;23.352;2023-05-29T03:21:58;11.23;;;7.03;;
41077;SDS011;26823;42.662;23.352;2023-05-29T03:24:23;8.32;;;6.20;;
41077;SDS011;26823;42.662;23.352;2023-05-29T03:26:48;9.38;;;6.32;;
41077;SDS011;26823;42.662;23.352;2023-05-29T03:29:15;10.88;;;7.55;;
41077;SDS011;26823;42.662;23.352;2023-05-29T03:31:41;11.02;;;8.43;;
41077;SDS011;26823;42.662;23.352;2023-05-29T03:34:06;12.02;;;7.47;;
41077;SDS011;26823;42.662;23.352;2023-05-29T03:36:32;15.02;;;7.90;;
41077;SDS011;26823;42.662;23.352;2023-05-29T03:38:58;9.25;;;7.18;;
41077;SDS011;26823;42.662;23.352;2023-05-29T03:41:23;10.77;;;7.15;;
41077;SDS011;26823;42.662;23.352;2023-05-29T03:43:50;11.73;;;7.47;;
41077;SDS011;26823;42.662;23.352;2023-05-29T03:46:15;11.52;;;7.43;;
41077;SDS011;26823;42.662;23.352;2023-05-29T03:48:41;12.07;;;7.43;;
41077;SDS011;26823;42.662;23.352;2023-05-29T03:51:06;12.07;;;7.70;;
41077;SDS011;26823;42.662;23.352;2023-05-29T03:53:32;10.80;;;8.18;;
41077;SDS011;26823;42.662;23.352;2023-05-29T03:55:57;12.55;;;8.10;;
41077;SDS011;26823;42.662;23.352;2023-05-29T03:58:22;9.85;;;7.93;;
41077;SDS011;26823;42.662;23.352;2023-05-29T04:00:48;11.48;;;7.30;;
41077;SDS011;26823;42.662;23.352;2023-05-29T04:03:13;11.20;;;8.27;;
41077;SDS011;26823;42.662;23.352;2023-05-29T04:05:38;10.93;;;8.10;;
41077;SDS011;26823;42.662;23.352;2023-05-29T04:08:04;12.85;;;8.13;;
41077;SDS011;26823;42.662;23.352;2023-05-29T04:10:30;14.43;;;8.20;;
41077;SDS011;26823;42.662;23.352;2023-05-29T04:12:58;12.38;;;7.95;;
41077;SDS011;26823;42.662;23.352;2023-05-29T04:15:24;16.17;;;8.73;;
41077;SDS011;26823;42.662;23.352;2023-05-29T04:17:50;9.30;;;7.70;;
41077;SDS011;26823;42.662;23.352;2023-05-29T04:20:16;11.60;;;8.07;;
41077;SDS011;26823;42.662;23.352;2023-05-29T04:22:41;9.60;;;7.50;;
41077;SDS011;26823;42.662;23.352;2023-05-29T04:25:07;11.88;;;7.30;;
41077;SDS011;26823;42.662;23.352;2023-05-29T04:27:32;14.65;;;9.70;;
41077;SDS011;26823;42.662;23.352;2023-05-29T04:30:05;12.13;;;9.00;;
41077;SDS011;26823;42.662;23.352;2023-05-29T04:32:31;12.65;;;7.40;;
41077;SDS011;26823;42.662;23.352;2023-05-29T04:34:58;15.07;;;7.90;;
41077;SDS011;26823;42.662;23.352;2023-05-29T04:37:27;17.65;;;8.27;;
41077;SDS011;26823;42.662;23.352;2023-05-29T04:39:54;18.38;;;8.65;;
41077;SDS011;26823;42.662;23.352;2023-05-29T04:42:21;13.57;;;7.82;;
41077;SDS011;26823;42.662;23.352;2023-05-29T04:44:47;13.57;;;8.05;;
41077;SDS011;26823;42.662;23.352;2023-05-29T04:47:14;15.07;;;8.45;;
41077;SDS011;26823;42.662;23.352;2023-05-29T04:49:40;12.48;;;7.57;;
41077;SDS011;26823;42.662;23.352;2023-05-29T04:52:06;22.27;;;8.45;;
41077;SDS011;26823;42.662;23.352;2023-05-29T04:54:32;12.85;;;8.27;;
41077;SDS011;26823;42.662;23.352;2023-05-29T04:56:58;21.20;;;8.95;;
41077;SDS011;26823;42.662;23.352;2023-05-29T04:59:24;15.55;;;9.82;;
41077;SDS011;26823;42.662;23.352;2023-05-29T05:01:51;16.40;;;8.82;;
41077;SDS011;26823;42.662;23.352;2023-05-29T05:04:16;11.95;;;7.95;;
41077;SDS011;26823;42.662;23.352;2023-05-29T05:06:42;10.98;;;6.90;;
41077;SDS011;26823;42.662;23.352;2023-05-29T05:09:08;8.48;;;6.97;;
41077;SDS011;26823;42.662;23.352;2023-05-29T05:11:35;10.23;;;7.43;;
41077;SDS011;26823;42.662;23.352;2023-05-29T05:14:06;12.75;;;7.70;;
41077;SDS011;26823;42.662;23.352;2023-05-29T05:16:32;11.23;;;7.72;;
41077;SDS011;26823;42.662;23.352;2023-05-29T05:18:58;10.52;;;8.20;;
41077;SDS011;26823;42.662;23.352;2023-05-29T05:21:23;13.48;;;8.20;;
41077;SDS011;26823;42.662;23.352;2023-05-29T05:23:48;12.40;;;7.78;;
41077;SDS011;26823;42.662;23.352;2023-05-29T05:26:14;10.02;;;6.45;;
41077;SDS011;26823;42.662;23.352;2023-05-29T05:28:39;12.57;;;7.45;;
41077;SDS011;26823;42.662;23.352;2023-05-29T05:31:05;15.65;;;9.05;;
41077;SDS011;26823;42.662;23.352;2023-05-29T05:33:31;8.98;;;6.85;;
41077;SDS011;26823;42.662;23.352;2023-05-29T05:35:56;9.57;;;7.03;;
41077;SDS011;26823;42.662;23.352;2023-05-29T05:38:22;10.52;;;7.35;;
41077;SDS011;26823;42.662;23.352;2023-05-29T05:40:53;11.82;;;6.53;;
41077;SDS011;26823;42.662;23.352;2023-05-29T05:43:18;14.23;;;8.27;;
41077;SDS011;26823;42.662;23.352;2023-05-29T05:45:44;13.23;;;7.20;;
41077;SDS011;26823;42.662;23.352;2023-05-29T05:48:10;7.20;;;5.65;;
41077;SDS011;26823;42.662;23.352;2023-05-29T05:50:35;7.30;;;4.43;;
41077;SDS011;26823;42.662;23.352;2023-05-29T05:53:01;4.97;;;4.38;;
41077;SDS011;26823;42.662;23.352;2023-05-29T05:55:26;6.47;;;4.97;;
41077;SDS011;26823;42.662;23.352;2023-05-29T05:57:55;11.38;;;6.00;;
41077;SDS011;26823;42.662;23.352;2023-05-29T06:00:23;11.45;;;5.90;;
41077;SDS011;26823;42.662;23.352;2023-05-29T06:02:49;12.80;;;6.03;;
41077;SDS011;26823;42.662;23.352;2023-05-29T06:05:14;9.20;;;5.78;;
41077;SDS011;26823;42.662;23.352;2023-05-29T06:07:40;10.02;;;5.45;;
41077;SDS011;26823;42.662;23.352;2023-05-29T06:10:05;8.50;;;5.00;;
41077;SDS011;26823;42.662;23.352;2023-05-29T06:12:31;6.85;;;5.28;;
41077;SDS011;26823;42.662;23.352;2023-05-29T06:14:56;10.73;;;4.68;;
41077;SDS011;26823;42.662;23.352;2023-05-29T06:17:22;9.43;;;5.43;;
41077;SDS011;26823;42.662;23.352;2023-05-29T06:19:48;9.25;;;5.07;;
41077;SDS011;26823;42.662;23.352;2023-05-29T06:22:14;9.00;;;5.35;;
41077;SDS011;26823;42.662;23.352;2023-05-29T06:24:39;6.95;;;4.53;;
41077;SDS011;26823;42.662;23.352;2023-05-29T06:27:05;6.05;;;4.28;;
41077;SDS011;26823;42.662;23.352;2023-05-29T06:29:31;8.10;;;4.65;;
41077;SDS011;26823;42.662;23.352;2023-05-29T06:31:57;7.75;;;4.07;;
41077;SDS011;26823;42.662;23.352;2023-05-29T06:34:23;5.38;;;3.85;;
41077;SDS011;26823;42.662;23.352;2023-05-29T06:36:48;3.88;;;3.45;;
41077;SDS011;26823;42.662;23.352;2023-05-29T06:39:14;5.55;;;2.42;;
41077;SDS011;26823;42.662;23.352;2023-05-29T06:41:40;5.15;;;3.22;;
41077;SDS011;26823;42.662;23.352;2023-05-29T06:44:05;8.40;;;4.28;;
41077;SDS011;26823;42.662;23.352;2023-05-29T06:46:31;4.05;;;2.88;;
41077;SDS011;26823;42.662;23.352;2023-05-29T06:48:56;6.95;;;2.97;;
41077;SDS011;26823;42.662;23.352;2023-05-29T06:51:21;5.82;;;3.70;;
41077;SDS011;26823;42.662;23.352;2023-05-29T06:53:47;5.53;;;2.72;;
41077;SDS011;26823;42.662;23.352;2023-05-29T06:56:13;5.18;;;2.65;;
41077;SDS011;26823;42.662;23.352;2023-05-29T06:58:38;2.10;;;1.90;;
41077;SDS011;26823;42.662;23.352;2023-05-29T07:01:04;3.60;;;2.30;;
41077;SDS011;26823;42.662;23.352;2023-05-29T07:03:30;3.03;;;2.00;;
41077;SDS011;26823;42.662;23.352;2023-05-29T07:05:55;4.15;;;1.98;;
41077;SDS011;26823;42.662;23.352;2023-05-29T07:08:21;6.97;;;2.90;;
41077;SDS011;26823;42.662;23.352;2023-05-29T07:10:47;5.30;;;3.03;;
41077;SDS011;26823;42.662;23.352;2023-05-29T07:13:15;2.88;;;2.17;;
41077;SDS011;26823;42.662;23.352;2023-05-29T07:15:43;2.90;;;2.50;;
41077;SDS011;26823;42.662;23.352;2023-05-29T07:18:09;2.63;;;2.10;;
41077;SDS011;26823;42.662;23.352;2023-05-29T07:20:35;3.67;;;2.33;;
41077;SDS011;26823;42.662;23.352;2023-05-29T07:23:01;2.45;;;2.17;;
41077;SDS011;26823;42.662;23.352;2023-05-29T07:25:27;3.10;;;1.80;;
41077;SDS011;26823;42.662;23.352;2023-05-29T07:27:52;7.05;;;2.85;;
41077;SDS011;26823;42.662;23.352;2023-05-29T07:30:18;2.50;;;2.30;;
41077;SDS011;26823;42.662;23.352;2023-05-29T07:32:43;7.05;;;2.55;;
41077;SDS011;26823;42.662;23.352;2023-05-29T07:35:09;3.08;;;2.45;;
41077;SDS011;26823;42.662;23.352;2023-05-29T07:37:34;4.95;;;2.60;;
41077;SDS011;26823;42.662;23.352;2023-05-29T07:40:00;3.35;;;2.33;;
41077;SDS011;26823;42.662;23.352;2023-05-29T07:42:25;5.75;;;3.70;;
41077;SDS011;26823;42.662;23.352;2023-05-29T07:44:51;4.20;;;2.22;;
41077;SDS011;26823;42.662;23.352;2023-05-29T07:47:16;2.88;;;1.80;;
41077;SDS011;26823;42.662;23.352;2023-05-29T07:49:41;4.65;;;2.38;;
41077;SDS011;26823;42.662;23.352;2023-05-29T07:52:07;3.22;;;2.25;;
41077;SDS011;26823;42.662;23.352;2023-05-29T07:54:32;3.53;;;3.03;;
41077;SDS011;26823;42.662;23.352;2023-05-29T07:57:02;4.68;;;2.95;;
41077;SDS011;26823;42.662;23.352;2023-05-29T07:59:27;7.28;;;2.75;;
41077;SDS011;26823;42.662;23.352;2023-05-29T08:01:53;4.05;;;2.85;;
41077;SDS011;26823;42.662;23.352;2023-05-29T08:04:23;6.97;;;3.50;;
41077;SDS011;26823;42.662;23.352;2023-05-29T08:06:49;5.70;;;3.10;;
41077;SDS011;26823;42.662;23.352;2023-05-29T08:09:15;5.53;;;2.88;;
41077;SDS011;26823;42.662;23.352;2023-05-29T08:11:42;2.70;;;2.20;;
41077;SDS011;26823;42.662;23.352;2023-05-29T08:14:10;3.47;;;2.72;;
41077;SDS011;26823;42.662;23.352;2023-05-29T08:16:36;4.35;;;3.00;;
41077;SDS011;26823;42.662;23.352;2023-05-29T08:19:01;6.03;;;2.97;;
41077;SDS011;26823;42.662;23.352;2023-05-29T08:21:27;5.43;;;3.05;;
41077;SDS011;26823;42.662;23.352;2023-05-29T08:23:52;7.15;;;3.28;;
41077;SDS011;26823;42.662;23.352;2023-05-29T08:26:17;6.75;;;2.92;;
41077;SDS011;26823;42.662;23.352;2023-05-29T08:28:43;4.95;;;2.65;;
41077;SDS011;26823;42.662;23.352;2023-05-29T08:31:08;4.43;;;2.42;;
41077;SDS011;26823;42.662;23.352;2023-05-29T08:33:33;6.78;;;3.33;;
41077;SDS011;26823;42.662;23.352;2023-05-29T08:35:59;3.80;;;2.63;;
41077;SDS011;26823;42.662;23.352;2023-05-29T08:38:25;2.72;;;2.45;;
41077;SDS011;26823;42.662;23.352;2023-05-29T08:40:51;4.55;;;2.83;;
41077;SDS011;26823;42.662;23.352;2023-05-29T08:43:22;3.85;;;2.28;;
41077;SDS011;26823;42.662;23.352;2023-05-29T08:45:55;3.70;;;2.40;;
41077;SDS011;26823;42.662;23.352;2023-05-29T08:48:26;4.97;;;2.60;;
41077;SDS011;26823;42.662;23.352;2023-05-29T08:50:53;3.65;;;2.80;;
41077;SDS011;26823;42.662;23.352;2023-05-29T08:53:20;3.67;;;2.47;;
41077;SDS011;26823;42.662;23.352;2023-05-29T08:55:47;6.20;;;2.58;;
41077;SDS011;26823;42.662;23.352;2023-05-29T08:58:16;2.90;;;2.22;;
41077;SDS011;26823;42.662;23.352;2023-05-29T09:00:43;3.00;;;2.35;;
41077;SDS011;26823;42.662;23.352;2023-05-29T09:03:10;6.00;;;3.30;;
41077;SDS011;26823;42.662;23.352;2023-05-29T09:05:36;6.60;;;2.45;;
41077;SDS011;26823;42.662;23.352;2023-05-29T09:08:05;2.47;;;2.28;;
41077;SDS011;26823;42.662;23.352;2023-05-29T09:10:32;6.03;;;2.55;;
41077;SDS011;26823;42.662;23.352;2023-05-29T09:12:58;2.65;;;2.40;;
41077;SDS011;26823;42.662;23.352;2023-05-29T09:15:24;3.67;;;2.80;;
41077;SDS011;26823;42.662;23.352;2023-05-29T09:17:58;5.90;;;3.08;;
41077;SDS011;26823;42.662;23.352;2023-05-29T09:20:25;3.42;;;2.70;;
41077;SDS011;26823;42.662;23.352;2023-05-29T09:22:57;2.85;;;2.35;;
41077;SDS011;26823;42.662;23.352;2023-05-29T09:25:32;4.97;;;3.90;;
41077;SDS011;26823;42.662;23.352;2023-05-29T09:33:05;4.53;;;2.30;;
41077;SDS011;26823;42.662;23.352;2023-05-29T09:35:33;3.08;;;2.60;;
41077;SDS011;26823;42.662;23.352;2023-05-29T09:37:59;4.75;;;2.97;;
41077;SDS011;26823;42.662;23.352;2023-05-29T09:40:25;3.25;;;2.75;;
41077;SDS011;26823;42.662;23.352;2023-05-29T09:43:10;3.95;;;2.33;;
41077;SDS011;26823;42.662;23.352;2023-05-29T09:45:43;3.95;;;3.08;;
41077;SDS011;26823;42.662;23.352;2023-05-29T09:48:22;7.38;;;3.10;;
41077;SDS011;26823;42.662;23.352;2023-05-29T09:50:49;4.00;;;2.72;;
41077;SDS011;26823;42.662;23.352;2023-05-29T09:53:18;3.22;;;2.72;;
41077;SDS011;26823;42.662;23.352;2023-05-29T09:55:46;4.03;;;2.78;;
41077;SDS011;26823;42.662;23.352;2023-05-29T09:58:13;5.18;;;2.50;;
41077;SDS011;26823;42.662;23.352;2023-05-29T10:00:41;5.45;;;2.72;;
41077;SDS011;26823;42.662;23.352;2023-05-29T10:03:07;3.92;;;2.72;;
41077;SDS011;26823;42.662;23.352;2023-05-29T10:05:32;3.85;;;2.25;;
41077;SDS011;26823;42.662;23.352;2023-05-29T10:07:57;5.68;;;3.58;;
41077;SDS011;26823;42.662;23.352;2023-05-29T10:10:26;3.53;;;3.10;;
41077;SDS011;26823;42.662;23.352;2023-05-29T10:12:53;4.28;;;2.40;;
41077;SDS011;26823;42.662;23.352;2023-05-29T10:15:19;4.80;;;2.83;;
41077;SDS011;26823;42.662;23.352;2023-05-29T10:17:57;5.05;;;2.97;;
41077;SDS011;26823;42.662;23.352;2023-05-29T10:24:23;4.68;;;2.70;;
41077;SDS011;26823;42.662;23.352;2023-05-29T10:37:06;3.72;;;3.33;;
41077;SDS011;26823;42.662;23.352;2023-05-29T10:40:11;7.20;;;3.08;;
41077;SDS011;26823;42.662;23.352;2023-05-29T10:42:42;3.30;;;2.85;;
41077;SDS011;26823;42.662;23.352;2023-05-29T10:45:11;4.55;;;2.70;;
41077;SDS011;26823;42.662;23.352;2023-05-29T10:47:51;3.25;;;2.63;;
41077;SDS011;26823;42.662;23.352;2023-05-29T10:50:21;7.55;;;2.78;;
41077;SDS011;26823;42.662;23.352;2023-05-29T10:53:16;4.93;;;2.85;;
41077;SDS011;26823;42.662;23.352;2023-05-29T10:55:44;4.38;;;2.72;;
41077;SDS011;26823;42.662;23.352;2023-05-29T10:58:14;4.05;;;2.60;;
41077;SDS011;26823;42.662;23.352;2023-05-29T11:00:45;4.88;;;2.95;;
41077;SDS011;26823;42.662;23.352;2023-05-29T11:03:14;3.42;;;2.72;;
41077;SDS011;26823;42.662;23.352;2023-05-29T11:08:34;2.97;;;2.58;;
41077;SDS011;26823;42.662;23.352;2023-05-29T11:11:01;4.00;;;2.80;;
41077;SDS011;26823;42.662;23.352;2023-05-29T11:13:36;4.47;;;2.80;;
41077;SDS011;26823;42.662;23.352;2023-05-29T11:18:43;3.85;;;3.00;;
41077;SDS011;26823;42.662;23.352;2023-05-29T11:23:52;4.03;;;2.92;;
41077;SDS011;26823;42.662;23.352;2023-05-29T11:26:22;5.95;;;3.45;;
41077;SDS011;26823;42.662;23.352;2023-05-29T11:28:49;7.05;;;3.13;;
41077;SDS011;26823;42.662;23.352;2023-05-29T11:31:15;5.78;;;2.72;;
41077;SDS011;26823;42.662;23.352;2023-05-29T11:33:47;4.85;;;2.92;;
41077;SDS011;26823;42.662;23.352;2023-05-29T11:36:14;3.10;;;2.80;;
41077;SDS011;26823;42.662;23.352;2023-05-29T11:38:41;8.27;;;3.03;;
41077;SDS011;26823;42.662;23.352;2023-05-29T11:41:06;3.13;;;2.53;;
41077;SDS011;26823;42.662;23.352;2023-05-29T11:43:34;3.28;;;2.97;;
41077;SDS011;26823;42.662;23.352;2023-05-29T11:45:59;3.67;;;3.00;;
41077;SDS011;26823;42.662;23.352;2023-05-29T11:48:25;3.97;;;2.95;;
41077;SDS011;26823;42.662;23.352;2023-05-29T11:50:50;4.43;;;3.05;;
41077;SDS011;26823;42.662;23.352;2023-05-29T11:53:22;3.55;;;2.92;;
41077;SDS011;26823;42.662;23.352;2023-05-29T11:55:48;7.78;;;3.20;;
41077;SDS011;26823;42.662;23.352;2023-05-29T11:58:13;4.45;;;3.35;;
41077;SDS011;26823;42.662;23.352;2023-05-29T12:00:41;5.63;;;3.67;;
41077;SDS011;26823;42.662;23.352;2023-05-29T12:03:17;7.90;;;4.00;;
41077;SDS011;26823;42.662;23.352;2023-05-29T12:05:46;6.75;;;3.72;;
41077;SDS011;26823;42.662;23.352;2023-05-29T12:08:20;8.30;;;4.60;;
41077;SDS011;26823;42.662;23.352;2023-05-29T12:10:50;9.95;;;4.07;;
41077;SDS011;26823;42.662;23.352;2023-05-29T12:13:20;7.38;;;4.90;;
41077;SDS011;26823;42.662;23.352;2023-05-29T12:15:46;4.90;;;3.78;;
41077;SDS011;26823;42.662;23.352;2023-05-29T12:18:13;8.07;;;3.80;;
41077;SDS011;26823;42.662;23.352;2023-05-29T12:20:40;8.25;;;4.50;;
41077;SDS011;26823;42.662;23.352;2023-05-29T12:23:12;6.80;;;3.95;;
41077;SDS011;26823;42.662;23.352;2023-05-29T12:25:38;6.00;;;4.55;;
41077;SDS011;26823;42.662;23.352;2023-05-29T12:28:03;8.02;;;4.55;;
41077;SDS011;26823;42.662;23.352;2023-05-29T12:30:30;5.00;;;3.83;;
41077;SDS011;26823;42.662;23.352;2023-05-29T12:32:56;5.90;;;4.35;;
41077;SDS011;26823;42.662;23.352;2023-05-29T12:35:25;7.18;;;3.90;;
41077;SDS011;26823;42.662;23.352;2023-05-29T12:37:56;5.43;;;4.03;;
41077;SDS011;26823;42.662;23.352;2023-05-29T12:42:52;6.20;;;3.72;;
41077;SDS011;26823;42.662;23.352;2023-05-29T12:45:20;4.43;;;3.88;;
41077;SDS011;26823;42.662;23.352;2023-05-29T12:47:51;6.28;;;4.22;;
41077;SDS011;26823;42.662;23.352;2023-05-29T12:53:08;5.88;;;3.67;;
41077;SDS011;26823;42.662;23.352;2023-05-29T12:55:39;6.38;;;3.72;;
41077;SDS011;26823;42.662;23.352;2023-05-29T12:58:06;4.75;;;4.25;;
41077;SDS011;26823;42.662;23.352;2023-05-29T13:00:33;6.70;;;3.30;;
41077;SDS011;26823;42.662;23.352;2023-05-29T13:02:59;8.10;;;4.47;;
41077;SDS011;26823;42.662;23.352;2023-05-29T13:05:26;7.10;;;4.65;;
41077;SDS011;26823;42.662;23.352;2023-05-29T13:07:51;4.40;;;3.90;;
41077;SDS011;26823;42.662;23.352;2023-05-29T13:10:18;7.15;;;4.45;;
41077;SDS011;26823;42.662;23.352;2023-05-29T13:12:44;4.63;;;4.07;;
41077;SDS011;26823;42.662;23.352;2023-05-29T13:15:16;5.38;;;4.38;;
41077;SDS011;26823;42.662;23.352;2023-05-29T13:17:41;7.13;;;5.07;;
41077;SDS011;26823;42.662;23.352;2023-05-29T13:20:11;6.97;;;5.28;;
41077;SDS011;26823;42.662;23.352;2023-05-29T13:22:41;6.13;;;4.80;;
41077;SDS011;26823;42.662;23.352;2023-05-29T13:25:08;6.60;;;5.00;;
41077;SDS011;26823;42.662;23.352;2023-05-29T13:27:36;8.00;;;5.95;;
41077;SDS011;26823;42.662;23.352;2023-05-29T13:30:03;6.25;;;4.55;;
41077;SDS011;26823;42.662;23.352;2023-05-29T13:32:30;7.75;;;5.50;;
41077;SDS011;26823;42.662;23.352;2023-05-29T13:34:55;11.45;;;5.22;;
41077;SDS011;26823;42.662;23.352;2023-05-29T13:37:21;8.43;;;5.93;;
41077;SDS011;26823;42.662;23.352;2023-05-29T13:39:46;6.07;;;5.38;;
41077;SDS011;26823;42.662;23.352;2023-05-29T13:42:12;6.93;;;5.45;;
41077;SDS011;26823;42.662;23.352;2023-05-29T13:44:37;6.00;;;5.35;;
41077;SDS011;26823;42.662;23.352;2023-05-29T13:47:03;6.70;;;5.05;;
41077;SDS011;26823;42.662;23.352;2023-05-29T13:49:29;6.80;;;4.50;;
41077;SDS011;26823;42.662;23.352;2023-05-29T13:51:55;6.85;;;4.80;;
41077;SDS011;26823;42.662;23.352;2023-05-29T13:54:20;5.68;;;5.13;;
41077;SDS011;26823;42.662;23.352;2023-05-29T13:56:47;7.82;;;5.65;;
41077;SDS011;26823;42.662;23.352;2023-05-29T13:59:12;10.40;;;5.82;;
41077;SDS011;26823;42.662;23.352;2023-05-29T14:01:38;7.65;;;5.32;;
41077;SDS011;26823;42.662;23.352;2023-05-29T14:04:03;10.13;;;5.25;;
41077;SDS011;26823;42.662;23.352;2023-05-29T14:06:28;6.80;;;5.43;;
41077;SDS011;26823;42.662;23.352;2023-05-29T14:08:54;6.63;;;5.20;;
41077;SDS011;26823;42.662;23.352;2023-05-29T14:11:21;6.53;;;5.35;;
41077;SDS011;26823;42.662;23.352;2023-05-29T14:13:46;2.80;;;2.60;;
41077;SDS011;26823;42.662;23.352;2023-05-29T14:16:12;2.17;;;1.83;;
41077;SDS011;26823;42.662;23.352;2023-05-29T14:18:39;3.33;;;2.03;;
41077;SDS011;26823;42.662;23.352;2023-05-29T14:21:04;3.08;;;2.13;;
41077;SDS011;26823;42.662;23.352;2023-05-29T14:23:30;4.07;;;2.35;;
41077;SDS011;26823;42.662;23.352;2023-05-29T14:25:55;3.28;;;1.90;;
41077;SDS011;26823;42.662;23.352;2023-05-29T14:28:21;3.78;;;2.00;;
41077;SDS011;26823;42.662;23.352;2023-05-29T14:30:46;1.80;;;1.70;;
41077;SDS011;26823;42.662;23.352;2023-05-29T14:33:11;4.50;;;2.03;;
41077;SDS011;26823;42.662;23.352;2023-05-29T14:35:37;4.35;;;2.20;;
41077;SDS011;26823;42.662;23.352;2023-05-29T14:38:02;2.28;;;2.08;;
41077;SDS011;26823;42.662;23.352;2023-05-29T14:40:27;2.47;;;1.92;;
41077;SDS011;26823;42.662;23.352;2023-05-29T14:42:53;2.58;;;1.83;;
41077;SDS011;26823;42.662;23.352;2023-05-29T14:45:19;2.85;;;1.88;;
41077;SDS011;26823;42.662;23.352;2023-05-29T14:47:44;2.10;;;1.40;;
41077;SDS011;26823;42.662;23.352;2023-05-29T14:50:10;2.55;;;1.70;;
41077;SDS011;26823;42.662;23.352;2023-05-29T14:52:36;2.05;;;1.90;;
41077;SDS011;26823;42.662;23.352;2023-05-29T14:55:02;2.28;;;1.85;;
41077;SDS011;26823;42.662;23.352;2023-05-29T14:57:28;1.80;;;1.70;;
41077;SDS011;26823;42.662;23.352;2023-05-29T14:59:55;3.08;;;2.00;;
41077;SDS011;26823;42.662;23.352;2023-05-29T15:02:20;4.60;;;2.75;;
41077;SDS011;26823;42.662;23.352;2023-05-29T15:04:45;5.57;;;3.58;;